sensor_id;sensor_type;location;lat;lon;timestamp;P1;durP1;ratioP1;P2;durP2;ratioP2
82000;SDS011;71510;50.558;7.258;2024-01-07T00:01:51;29.27;;;18.90;;
82000;SDS011;71510;50.558;7.258;2024-01-07T00:04:19;28.38;;;19.77;;
82000;SDS011;71510;50.558;7.258;2024-01-07T00:06:46;29.25;;;19.37;;
82000;SDS011;71510;50.558;7.258;2024-01-07T00:09:13;30.37;;;19.23;;
82000;SDS011;71510;50.558;7.258;2024-01-07T00:11:41;33.60;;;20.17;;
82000;SDS011;71510;50.558;7.258;2024-01-07T00:14:08;33.92;;;21.05;;
82000;SDS011;71510;50.558;7.258;2024-01-07T00:16:35;35.08;;;20.72;;
82000;SDS011;71510;50.558;7.258;2024-01-07T00:19:03;34.50;;;21.12;;
82000;SDS011;71510;50.558;7.258;2024-01-07T00:21:30;33.65;;;20.88;;
82000;SDS011;71510;50.558;7.258;2024-01-07T00:23:57;37.25;;;23.18;;
82000;SDS011;71510;50.558;7.258;2024-01-07T00:26:25;37.23;;;22.35;;
82000;SDS011;71510;50.558;7.258;2024-01-07T00:28:52;33.55;;;20.57;;
82000;SDS011;71510;50.558;7.258;2024-01-07T00:31:19;29.67;;;19.30;;
82000;SDS011;71510;50.558;7.258;2024-01-07T00:33:46;29.55;;;18.70;;
82000;SDS011;71510;50.558;7.258;2024-01-07T00:36:14;32.42;;;19.25;;
82000;SDS011;71510;50.558;7.258;2024-01-07T00:38:41;31.05;;;19.92;;
82000;SDS011;71510;50.558;7.258;2024-01-07T00:41:08;30.80;;;19.12;;
82000;SDS011;71510;50.558;7.258;2024-01-07T00:43:36;27.62;;;17.70;;
82000;SDS011;71510;50.558;7.258;2024-01-07T00:46:03;25.97;;;17.27;;
82000;SDS011;71510;50.558;7.258;2024-01-07T00:48:31;25.50;;;16.45;;
82000;SDS011;71510;50.558;7.258;2024-01-07T00:50:58;24.47;;;15.25;;
82000;SDS011;71510;50.558;7.258;2024-01-07T00:53:25;24.37;;;16.30;;
82000;SDS011;71510;50.558;7.258;2024-01-07T00:55:53;23.50;;;15.85;;
82000;SDS011;71510;50.558;7.258;2024-01-07T00:58:20;28.55;;;17.23;;
82000;SDS011;71510;50.558;7.258;2024-01-07T01:00:47;25.80;;;16.65;;
82000;SDS011;71510;50.558;7.258;2024-01-07T01:03:14;22.52;;;16.57;;
82000;SDS011;71510;50.558;7.258;2024-01-07T01:05:42;23.27;;;15.50;;
82000;SDS011;71510;50.558;7.258;2024-01-07T01:08:09;25.90;;;17.17;;
82000;SDS011;71510;50.558;7.258;2024-01-07T01:10:37;26.93;;;15.10;;
82000;SDS011;71510;50.558;7.258;2024-01-07T01:13:04;22.60;;;15.05;;
82000;SDS011;71510;50.558;7.258;2024-01-07T01:15:31;24.47;;;15.10;;
82000;SDS011;71510;50.558;7.258;2024-01-07T01:17:58;24.20;;;15.78;;
82000;SDS011;71510;50.558;7.258;2024-01-07T01:20:26;26.37;;;15.95;;
82000;SDS011;71510;50.558;7.258;2024-01-07T01:22:53;26.97;;;15.58;;
82000;SDS011;71510;50.558;7.258;2024-01-07T01:25:20;23.07;;;15.23;;
82000;SDS011;71510;50.558;7.258;2024-01-07T01:27:48;23.30;;;16.30;;
82000;SDS011;71510;50.558;7.258;2024-01-07T01:30:15;25.30;;;16.65;;
82000;SDS011;71510;50.558;7.258;2024-01-07T01:32:42;25.32;;;16.25;;
82000;SDS011;71510;50.558;7.258;2024-01-07T01:35:10;23.35;;;16.65;;
82000;SDS011;71510;50.558;7.258;2024-01-07T01:37:37;25.68;;;16.67;;
82000;SDS011;71510;50.558;7.258;2024-01-07T01:40:05;21.57;;;15.50;;
82000;SDS011;71510;50.558;7.258;2024-01-07T01:42:32;23.75;;;15.30;;
82000;SDS011;71510;50.558;7.258;2024-01-07T01:44:59;26.05;;;16.70;;
82000;SDS011;71510;50.558;7.258;2024-01-07T01:47:29;23.32;;;16.27;;
82000;SDS011;71510;50.558;7.258;2024-01-07T01:49:57;20.50;;;14.18;;
82000;SDS011;71510;50.558;7.258;2024-01-07T01:52:24;21.20;;;14.38;;
82000;SDS011;71510;50.558;7.258;2024-01-07T01:54:51;20.92;;;15.03;;
82000;SDS011;71510;50.558;7.258;2024-01-07T01:57:21;24.15;;;16.12;;
82000;SDS011;71510;50.558;7.258;2024-01-07T01:59:48;23.73;;;15.90;;
82000;SDS011;71510;50.558;7.258;2024-01-07T02:02:16;27.13;;;16.30;;
82000;SDS011;71510;50.558;7.258;2024-01-07T02:04:43;22.95;;;15.88;;
82000;SDS011;71510;50.558;7.258;2024-01-07T02:07:11;22.90;;;15.15;;
82000;SDS011;71510;50.558;7.258;2024-01-07T02:09:38;22.20;;;14.25;;
82000;SDS011;71510;50.558;7.258;2024-01-07T02:12:06;23.20;;;14.68;;
82000;SDS011;71510;50.558;7.258;2024-01-07T02:14:35;24.15;;;16.75;;
82000;SDS011;71510;50.558;7.258;2024-01-07T02:17:02;25.65;;;16.50;;
82000;SDS011;71510;50.558;7.258;2024-01-07T02:19:30;23.30;;;14.65;;
82000;SDS011;71510;50.558;7.258;2024-01-07T02:21:57;25.88;;;16.80;;
82000;SDS011;71510;50.558;7.258;2024-01-07T02:24:24;24.10;;;16.60;;
82000;SDS011;71510;50.558;7.258;2024-01-07T02:26:51;24.60;;;15.60;;
82000;SDS011;71510;50.558;7.258;2024-01-07T02:29:19;22.87;;;14.78;;
82000;SDS011;71510;50.558;7.258;2024-01-07T02:31:46;22.95;;;14.45;;
82000;SDS011;71510;50.558;7.258;2024-01-07T02:34:13;22.90;;;14.73;;
82000;SDS011;71510;50.558;7.258;2024-01-07T02:36:41;21.73;;;14.75;;
82000;SDS011;71510;50.558;7.258;2024-01-07T02:39:08;19.65;;;14.55;;
82000;SDS011;71510;50.558;7.258;2024-01-07T02:41:35;22.25;;;14.58;;
82000;SDS011;71510;50.558;7.258;2024-01-07T02:44:03;21.68;;;13.25;;
82000;SDS011;71510;50.558;7.258;2024-01-07T02:46:30;21.00;;;14.60;;
82000;SDS011;71510;50.558;7.258;2024-01-07T02:48:58;19.23;;;13.48;;
82000;SDS011;71510;50.558;7.258;2024-01-07T02:51:25;22.35;;;13.38;;
82000;SDS011;71510;50.558;7.258;2024-01-07T02:53:52;20.08;;;12.60;;
82000;SDS011;71510;50.558;7.258;2024-01-07T02:56:19;19.37;;;13.55;;
82000;SDS011;71510;50.558;7.258;2024-01-07T02:58:47;21.80;;;13.98;;
82000;SDS011;71510;50.558;7.258;2024-01-07T03:01:14;20.23;;;14.18;;
82000;SDS011;71510;50.558;7.258;2024-01-07T03:03:41;24.07;;;15.05;;
82000;SDS011;71510;50.558;7.258;2024-01-07T03:06:09;21.15;;;14.75;;
82000;SDS011;71510;50.558;7.258;2024-01-07T03:08:36;20.82;;;14.20;;
82000;SDS011;71510;50.558;7.258;2024-01-07T03:11:06;19.70;;;14.10;;
82000;SDS011;71510;50.558;7.258;2024-01-07T03:13:33;20.72;;;14.45;;
82000;SDS011;71510;50.558;7.258;2024-01-07T03:16:01;21.55;;;13.72;;
82000;SDS011;71510;50.558;7.258;2024-01-07T03:18:28;20.85;;;13.00;;
82000;SDS011;71510;50.558;7.258;2024-01-07T03:20:58;21.57;;;13.58;;
82000;SDS011;71510;50.558;7.258;2024-01-07T03:23:25;22.52;;;14.07;;
82000;SDS011;71510;50.558;7.258;2024-01-07T03:25:53;20.65;;;13.85;;
82000;SDS011;71510;50.558;7.258;2024-01-07T03:28:20;20.95;;;14.87;;
82000;SDS011;71510;50.558;7.258;2024-01-07T03:30:47;19.98;;;13.13;;
82000;SDS011;71510;50.558;7.258;2024-01-07T03:33:14;19.05;;;13.00;;
82000;SDS011;71510;50.558;7.258;2024-01-07T03:35:42;22.13;;;14.35;;
82000;SDS011;71510;50.558;7.258;2024-01-07T03:38:09;21.75;;;14.78;;
82000;SDS011;71510;50.558;7.258;2024-01-07T03:40:36;23.40;;;14.43;;
82000;SDS011;71510;50.558;7.258;2024-01-07T03:43:04;23.70;;;14.85;;
82000;SDS011;71510;50.558;7.258;2024-01-07T03:45:31;23.45;;;14.05;;
82000;SDS011;71510;50.558;7.258;2024-01-07T03:47:58;22.98;;;14.65;;
82000;SDS011;71510;50.558;7.258;2024-01-07T03:50:26;22.37;;;15.15;;
82000;SDS011;71510;50.558;7.258;2024-01-07T03:52:53;24.30;;;15.63;;
82000;SDS011;71510;50.558;7.258;2024-01-07T03:55:20;20.65;;;15.70;;
82000;SDS011;71510;50.558;7.258;2024-01-07T03:57:47;24.00;;;14.55;;
82000;SDS011;71510;50.558;7.258;2024-01-07T04:00:15;21.17;;;14.58;;
82000;SDS011;71510;50.558;7.258;2024-01-07T04:02:42;21.77;;;14.83;;
82000;SDS011;71510;50.558;7.258;2024-01-07T04:05:10;22.60;;;14.28;;
82000;SDS011;71510;50.558;7.258;2024-01-07T04:07:37;22.30;;;13.70;;
82000;SDS011;71510;50.558;7.258;2024-01-07T04:10:04;21.15;;;14.47;;
82000;SDS011;71510;50.558;7.258;2024-01-07T04:12:32;18.70;;;12.78;;
82000;SDS011;71510;50.558;7.258;2024-01-07T04:14:59;21.05;;;13.72;;
82000;SDS011;71510;50.558;7.258;2024-01-07T04:17:26;20.82;;;14.28;;
82000;SDS011;71510;50.558;7.258;2024-01-07T04:19:54;23.02;;;14.60;;
82000;SDS011;71510;50.558;7.258;2024-01-07T04:22:22;22.60;;;14.35;;
82000;SDS011;71510;50.558;7.258;2024-01-07T04:24:49;20.25;;;13.13;;
82000;SDS011;71510;50.558;7.258;2024-01-07T04:27:16;21.77;;;14.55;;
82000;SDS011;71510;50.558;7.258;2024-01-07T04:29:43;23.35;;;15.48;;
82000;SDS011;71510;50.558;7.258;2024-01-07T04:32:11;25.77;;;15.88;;
82000;SDS011;71510;50.558;7.258;2024-01-07T04:34:38;23.20;;;15.48;;
82000;SDS011;71510;50.558;7.258;2024-01-07T04:37:05;23.80;;;15.23;;
82000;SDS011;71510;50.558;7.258;2024-01-07T04:39:33;23.85;;;15.90;;
82000;SDS011;71510;50.558;7.258;2024-01-07T04:42:00;26.60;;;16.50;;
82000;SDS011;71510;50.558;7.258;2024-01-07T04:44:27;27.22;;;17.00;;
82000;SDS011;71510;50.558;7.258;2024-01-07T04:46:55;25.70;;;16.60;;
82000;SDS011;71510;50.558;7.258;2024-01-07T04:49:22;25.95;;;16.87;;
82000;SDS011;71510;50.558;7.258;2024-01-07T04:51:49;27.58;;;18.07;;
82000;SDS011;71510;50.558;7.258;2024-01-07T04:54:16;27.32;;;17.07;;
82000;SDS011;71510;50.558;7.258;2024-01-07T04:56:45;28.95;;;17.32;;
82000;SDS011;71510;50.558;7.258;2024-01-07T04:59:12;27.62;;;16.02;;
82000;SDS011;71510;50.558;7.258;2024-01-07T05:01:39;28.55;;;19.27;;
82000;SDS011;71510;50.558;7.258;2024-01-07T05:04:07;26.52;;;16.25;;
82000;SDS011;71510;50.558;7.258;2024-01-07T05:06:34;25.27;;;16.65;;
82000;SDS011;71510;50.558;7.258;2024-01-07T05:09:01;29.70;;;18.40;;
82000;SDS011;71510;50.558;7.258;2024-01-07T05:11:29;30.60;;;19.02;;
82000;SDS011;71510;50.558;7.258;2024-01-07T05:13:56;31.62;;;18.20;;
82000;SDS011;71510;50.558;7.258;2024-01-07T05:16:23;30.40;;;18.62;;
82000;SDS011;71510;50.558;7.258;2024-01-07T05:18:51;27.45;;;16.20;;
82000;SDS011;71510;50.558;7.258;2024-01-07T05:21:18;25.72;;;16.65;;
82000;SDS011;71510;50.558;7.258;2024-01-07T05:23:45;27.45;;;16.67;;
82000;SDS011;71510;50.558;7.258;2024-01-07T05:26:13;27.13;;;16.32;;
82000;SDS011;71510;50.558;7.258;2024-01-07T05:28:40;24.50;;;16.93;;
82000;SDS011;71510;50.558;7.258;2024-01-07T05:31:14;28.85;;;17.07;;
82000;SDS011;71510;50.558;7.258;2024-01-07T05:33:42;25.68;;;17.07;;
82000;SDS011;71510;50.558;7.258;2024-01-07T05:36:09;26.45;;;15.93;;
82000;SDS011;71510;50.558;7.258;2024-01-07T05:38:37;29.20;;;17.10;;
82000;SDS011;71510;50.558;7.258;2024-01-07T05:41:04;25.88;;;16.10;;
82000;SDS011;71510;50.558;7.258;2024-01-07T05:43:32;25.32;;;15.70;;
82000;SDS011;71510;50.558;7.258;2024-01-07T05:45:59;27.35;;;17.12;;
82000;SDS011;71510;50.558;7.258;2024-01-07T05:48:28;28.73;;;16.73;;
82000;SDS011;71510;50.558;7.258;2024-01-07T05:50:55;23.70;;;14.23;;
82000;SDS011;71510;50.558;7.258;2024-01-07T05:53:22;22.10;;;14.63;;
82000;SDS011;71510;50.558;7.258;2024-01-07T05:55:49;22.05;;;14.95;;
82000;SDS011;71510;50.558;7.258;2024-01-07T05:58:17;24.10;;;15.50;;
82000;SDS011;71510;50.558;7.258;2024-01-07T06:00:44;22.40;;;15.23;;
82000;SDS011;71510;50.558;7.258;2024-01-07T06:03:11;29.92;;;16.80;;
82000;SDS011;71510;50.558;7.258;2024-01-07T06:05:39;21.35;;;12.68;;
82000;SDS011;71510;50.558;7.258;2024-01-07T06:08:06;21.62;;;14.45;;
82000;SDS011;71510;50.558;7.258;2024-01-07T06:10:33;23.40;;;13.50;;
82000;SDS011;71510;50.558;7.258;2024-01-07T06:13:01;24.47;;;14.58;;
82000;SDS011;71510;50.558;7.258;2024-01-07T06:15:29;22.48;;;14.10;;
82000;SDS011;71510;50.558;7.258;2024-01-07T06:17:56;27.52;;;14.65;;
82000;SDS011;71510;50.558;7.258;2024-01-07T06:20:24;25.40;;;14.55;;
82000;SDS011;71510;50.558;7.258;2024-01-07T06:22:51;23.62;;;13.62;;
82000;SDS011;71510;50.558;7.258;2024-01-07T06:25:18;24.37;;;13.53;;
82000;SDS011;71510;50.558;7.258;2024-01-07T06:27:46;27.05;;;13.75;;
82000;SDS011;71510;50.558;7.258;2024-01-07T06:30:13;25.62;;;13.13;;
82000;SDS011;71510;50.558;7.258;2024-01-07T06:32:43;25.48;;;14.03;;
82000;SDS011;71510;50.558;7.258;2024-01-07T06:35:10;24.23;;;14.75;;
82000;SDS011;71510;50.558;7.258;2024-01-07T06:37:37;29.23;;;14.85;;
82000;SDS011;71510;50.558;7.258;2024-01-07T06:40:04;32.17;;;15.53;;
82000;SDS011;71510;50.558;7.258;2024-01-07T06:42:32;26.42;;;15.48;;
82000;SDS011;71510;50.558;7.258;2024-01-07T06:44:59;23.77;;;14.87;;
82000;SDS011;71510;50.558;7.258;2024-01-07T06:47:28;26.50;;;15.40;;
82000;SDS011;71510;50.558;7.258;2024-01-07T06:49:55;23.42;;;13.93;;
82000;SDS011;71510;50.558;7.258;2024-01-07T06:52:23;22.37;;;14.07;;
82000;SDS011;71510;50.558;7.258;2024-01-07T06:54:50;22.62;;;14.80;;
82000;SDS011;71510;50.558;7.258;2024-01-07T06:57:17;22.30;;;13.65;;
82000;SDS011;71510;50.558;7.258;2024-01-07T06:59:45;26.07;;;15.83;;
82000;SDS011;71510;50.558;7.258;2024-01-07T07:02:12;21.00;;;13.45;;
82000;SDS011;71510;50.558;7.258;2024-01-07T07:04:39;23.15;;;15.28;;
82000;SDS011;71510;50.558;7.258;2024-01-07T07:07:07;23.38;;;15.70;;
82000;SDS011;71510;50.558;7.258;2024-01-07T07:09:34;26.85;;;15.93;;
82000;SDS011;71510;50.558;7.258;2024-01-07T07:12:01;27.25;;;15.30;;
82000;SDS011;71510;50.558;7.258;2024-01-07T07:14:29;24.98;;;16.15;;
82000;SDS011;71510;50.558;7.258;2024-01-07T07:16:56;24.67;;;16.15;;
82000;SDS011;71510;50.558;7.258;2024-01-07T07:19:23;26.35;;;16.93;;
82000;SDS011;71510;50.558;7.258;2024-01-07T07:21:51;22.98;;;15.40;;
82000;SDS011;71510;50.558;7.258;2024-01-07T07:24:18;27.22;;;16.65;;
82000;SDS011;71510;50.558;7.258;2024-01-07T07:26:45;27.77;;;17.20;;
82000;SDS011;71510;50.558;7.258;2024-01-07T07:29:13;29.10;;;17.85;;
82000;SDS011;71510;50.558;7.258;2024-01-07T07:31:40;31.30;;;18.15;;
82000;SDS011;71510;50.558;7.258;2024-01-07T07:34:08;26.68;;;17.85;;
82000;SDS011;71510;50.558;7.258;2024-01-07T07:36:36;30.08;;;18.00;;
82000;SDS011;71510;50.558;7.258;2024-01-07T07:39:03;32.48;;;19.73;;
82000;SDS011;71510;50.558;7.258;2024-01-07T07:41:30;32.83;;;19.95;;
82000;SDS011;71510;50.558;7.258;2024-01-07T07:43:58;29.65;;;19.40;;
82000;SDS011;71510;50.558;7.258;2024-01-07T07:46:25;35.55;;;21.65;;
82000;SDS011;71510;50.558;7.258;2024-01-07T07:48:52;34.20;;;21.65;;
82000;SDS011;71510;50.558;7.258;2024-01-07T07:51:20;35.90;;;20.52;;
82000;SDS011;71510;50.558;7.258;2024-01-07T07:53:47;34.75;;;20.57;;
82000;SDS011;71510;50.558;7.258;2024-01-07T07:56:15;32.80;;;20.02;;
82000;SDS011;71510;50.558;7.258;2024-01-07T07:58:42;33.18;;;20.30;;
82000;SDS011;71510;50.558;7.258;2024-01-07T08:01:09;32.98;;;21.73;;
82000;SDS011;71510;50.558;7.258;2024-01-07T08:03:37;30.85;;;19.57;;
82000;SDS011;71510;50.558;7.258;2024-01-07T08:06:04;34.00;;;21.52;;
82000;SDS011;71510;50.558;7.258;2024-01-07T08:08:31;31.55;;;20.88;;
82000;SDS011;71510;50.558;7.258;2024-01-07T08:10:59;33.08;;;22.10;;
82000;SDS011;71510;50.558;7.258;2024-01-07T08:13:26;30.77;;;21.15;;
82000;SDS011;71510;50.558;7.258;2024-01-07T08:15:53;31.68;;;20.17;;
82000;SDS011;71510;50.558;7.258;2024-01-07T08:18:21;28.32;;;20.02;;
82000;SDS011;71510;50.558;7.258;2024-01-07T08:20:48;30.40;;;20.77;;
82000;SDS011;71510;50.558;7.258;2024-01-07T08:23:16;30.00;;;20.62;;
82000;SDS011;71510;50.558;7.258;2024-01-07T08:25:43;26.60;;;19.32;;
82000;SDS011;71510;50.558;7.258;2024-01-07T08:28:11;29.95;;;21.17;;
82000;SDS011;71510;50.558;7.258;2024-01-07T08:30:39;30.15;;;20.48;;
82000;SDS011;71510;50.558;7.258;2024-01-07T08:33:06;29.85;;;20.20;;
82000;SDS011;71510;50.558;7.258;2024-01-07T08:35:33;27.85;;;20.88;;
82000;SDS011;71510;50.558;7.258;2024-01-07T08:38:00;28.55;;;19.17;;
82000;SDS011;71510;50.558;7.258;2024-01-07T08:40:28;32.45;;;20.92;;
82000;SDS011;71510;50.558;7.258;2024-01-07T08:42:55;32.15;;;22.27;;
82000;SDS011;71510;50.558;7.258;2024-01-07T08:45:23;28.77;;;19.87;;
82000;SDS011;71510;50.558;7.258;2024-01-07T08:47:50;29.30;;;21.25;;
82000;SDS011;71510;50.558;7.258;2024-01-07T08:50:17;28.12;;;19.57;;
82000;SDS011;71510;50.558;7.258;2024-01-07T08:52:45;30.45;;;20.52;;
82000;SDS011;71510;50.558;7.258;2024-01-07T08:55:12;30.65;;;19.77;;
82000;SDS011;71510;50.558;7.258;2024-01-07T08:57:40;29.67;;;20.35;;
82000;SDS011;71510;50.558;7.258;2024-01-07T09:00:07;28.77;;;19.10;;
82000;SDS011;71510;50.558;7.258;2024-01-07T09:02:34;29.98;;;21.25;;
82000;SDS011;71510;50.558;7.258;2024-01-07T09:05:02;28.15;;;19.30;;
82000;SDS011;71510;50.558;7.258;2024-01-07T09:07:29;29.90;;;21.15;;
82000;SDS011;71510;50.558;7.258;2024-01-07T09:09:56;27.30;;;18.62;;
82000;SDS011;71510;50.558;7.258;2024-01-07T09:12:26;30.57;;;21.07;;
82000;SDS011;71510;50.558;7.258;2024-01-07T09:14:54;30.08;;;20.43;;
82000;SDS011;71510;50.558;7.258;2024-01-07T09:17:21;31.20;;;19.95;;
82000;SDS011;71510;50.558;7.258;2024-01-07T09:19:48;30.52;;;20.90;;
82000;SDS011;71510;50.558;7.258;2024-01-07T09:22:16;27.22;;;19.02;;
82000;SDS011;71510;50.558;7.258;2024-01-07T09:24:43;27.73;;;18.67;;
82000;SDS011;71510;50.558;7.258;2024-01-07T09:27:10;28.10;;;18.75;;
82000;SDS011;71510;50.558;7.258;2024-01-07T09:29:38;30.20;;;21.07;;
82000;SDS011;71510;50.558;7.258;2024-01-07T09:32:05;28.67;;;19.48;;
82000;SDS011;71510;50.558;7.258;2024-01-07T09:34:32;26.93;;;19.27;;
82000;SDS011;71510;50.558;7.258;2024-01-07T09:37:01;29.02;;;20.30;;
82000;SDS011;71510;50.558;7.258;2024-01-07T09:39:28;25.17;;;17.27;;
82000;SDS011;71510;50.558;7.258;2024-01-07T09:41:56;29.92;;;19.90;;
82000;SDS011;71510;50.558;7.258;2024-01-07T09:44:23;27.55;;;18.73;;
82000;SDS011;71510;50.558;7.258;2024-01-07T09:46:51;27.58;;;19.00;;
82000;SDS011;71510;50.558;7.258;2024-01-07T09:49:18;26.07;;;18.52;;
82000;SDS011;71510;50.558;7.258;2024-01-07T09:51:45;24.80;;;18.35;;
82000;SDS011;71510;50.558;7.258;2024-01-07T09:54:14;28.05;;;18.85;;
82000;SDS011;71510;50.558;7.258;2024-01-07T09:56:43;26.07;;;19.17;;
82000;SDS011;71510;50.558;7.258;2024-01-07T09:59:11;27.20;;;19.10;;
82000;SDS011;71510;50.558;7.258;2024-01-07T10:01:39;24.43;;;18.02;;
82000;SDS011;71510;50.558;7.258;2024-01-07T10:04:07;26.25;;;18.60;;
82000;SDS011;71510;50.558;7.258;2024-01-07T10:06:34;25.32;;;18.50;;
82000;SDS011;71510;50.558;7.258;2024-01-07T10:09:01;26.23;;;17.48;;
82000;SDS011;71510;50.558;7.258;2024-01-07T10:11:29;25.65;;;17.30;;
82000;SDS011;71510;50.558;7.258;2024-01-07T10:13:56;24.80;;;17.62;;
82000;SDS011;71510;50.558;7.258;2024-01-07T10:16:23;23.45;;;16.55;;
82000;SDS011;71510;50.558;7.258;2024-01-07T10:18:51;25.23;;;16.85;;
82000;SDS011;71510;50.558;7.258;2024-01-07T10:21:18;23.67;;;18.30;;
82000;SDS011;71510;50.558;7.258;2024-01-07T10:23:45;23.42;;;17.02;;
82000;SDS011;71510;50.558;7.258;2024-01-07T10:26:13;25.57;;;17.52;;
82000;SDS011;71510;50.558;7.258;2024-01-07T10:28:40;22.90;;;16.82;;
82000;SDS011;71510;50.558;7.258;2024-01-07T10:31:09;22.40;;;16.20;;
82000;SDS011;71510;50.558;7.258;2024-01-07T10:33:36;22.67;;;15.43;;
82000;SDS011;71510;50.558;7.258;2024-01-07T10:36:07;25.97;;;17.73;;
82000;SDS011;71510;50.558;7.258;2024-01-07T10:38:34;22.43;;;16.60;;
82000;SDS011;71510;50.558;7.258;2024-01-07T10:41:02;22.07;;;16.57;;
82000;SDS011;71510;50.558;7.258;2024-01-07T10:43:50;22.35;;;16.37;;
82000;SDS011;71510;50.558;7.258;2024-01-07T10:46:17;24.35;;;15.50;;
82000;SDS011;71510;50.558;7.258;2024-01-07T10:48:52;24.98;;;16.30;;
82000;SDS011;71510;50.558;7.258;2024-01-07T10:51:20;21.73;;;15.88;;
82000;SDS011;71510;50.558;7.258;2024-01-07T10:53:55;24.82;;;17.05;;
82000;SDS011;71510;50.558;7.258;2024-01-07T10:56:23;22.90;;;15.05;;
82000;SDS011;71510;50.558;7.258;2024-01-07T10:58:53;22.90;;;16.20;;
82000;SDS011;71510;50.558;7.258;2024-01-07T11:01:22;22.25;;;16.17;;
82000;SDS011;71510;50.558;7.258;2024-01-07T11:06:36;24.57;;;16.37;;
82000;SDS011;71510;50.558;7.258;2024-01-07T11:09:03;25.02;;;18.00;;
82000;SDS011;71510;50.558;7.258;2024-01-07T11:11:35;23.47;;;16.87;;
82000;SDS011;71510;50.558;7.258;2024-01-07T11:14:02;26.12;;;19.05;;
82000;SDS011;71510;50.558;7.258;2024-01-07T11:19:07;25.32;;;17.85;;
82000;SDS011;71510;50.558;7.258;2024-01-07T11:21:35;22.73;;;16.65;;
82000;SDS011;71510;50.558;7.258;2024-01-07T11:24:03;22.85;;;16.50;;
82000;SDS011;71510;50.558;7.258;2024-01-07T11:26:30;25.45;;;17.35;;
82000;SDS011;71510;50.558;7.258;2024-01-07T11:28:58;25.55;;;17.27;;
82000;SDS011;71510;50.558;7.258;2024-01-07T11:31:44;24.70;;;17.20;;
82000;SDS011;71510;50.558;7.258;2024-01-07T11:36:59;25.55;;;17.02;;
82000;SDS011;71510;50.558;7.258;2024-01-07T11:39:26;24.27;;;16.35;;
82000;SDS011;71510;50.558;7.258;2024-01-07T11:41:54;28.02;;;18.90;;
82000;SDS011;71510;50.558;7.258;2024-01-07T11:44:21;26.37;;;17.00;;
82000;SDS011;71510;50.558;7.258;2024-01-07T11:46:48;28.55;;;19.95;;
82000;SDS011;71510;50.558;7.258;2024-01-07T11:49:16;23.73;;;18.02;;
82000;SDS011;71510;50.558;7.258;2024-01-07T11:51:43;24.52;;;16.85;;
82000;SDS011;71510;50.558;7.258;2024-01-07T11:54:12;24.47;;;16.20;;
82000;SDS011;71510;50.558;7.258;2024-01-07T11:56:39;26.02;;;17.70;;
82000;SDS011;71510;50.558;7.258;2024-01-07T11:59:06;25.85;;;19.02;;
82000;SDS011;71510;50.558;7.258;2024-01-07T12:01:34;23.98;;;16.73;;
82000;SDS011;71510;50.558;7.258;2024-01-07T12:04:01;23.92;;;18.30;;
82000;SDS011;71510;50.558;7.258;2024-01-07T12:06:29;27.95;;;19.32;;
82000;SDS011;71510;50.558;7.258;2024-01-07T12:08:56;20.23;;;14.43;;
82000;SDS011;71510;50.558;7.258;2024-01-07T12:11:23;21.75;;;16.62;;
82000;SDS011;71510;50.558;7.258;2024-01-07T12:13:51;21.07;;;16.62;;
82000;SDS011;71510;50.558;7.258;2024-01-07T12:16:18;24.98;;;18.17;;
82000;SDS011;71510;50.558;7.258;2024-01-07T12:18:46;21.73;;;16.97;;
82000;SDS011;71510;50.558;7.258;2024-01-07T12:21:22;23.05;;;15.95;;
82000;SDS011;71510;50.558;7.258;2024-01-07T12:23:50;23.18;;;15.65;;
82000;SDS011;71510;50.558;7.258;2024-01-07T12:26:17;22.40;;;15.10;;
82000;SDS011;71510;50.558;7.258;2024-01-07T12:28:53;19.05;;;15.30;;
82000;SDS011;71510;50.558;7.258;2024-01-07T12:33:47;18.80;;;14.35;;
82000;SDS011;71510;50.558;7.258;2024-01-07T12:36:15;19.60;;;14.35;;
82000;SDS011;71510;50.558;7.258;2024-01-07T12:38:42;17.80;;;15.15;;
82000;SDS011;71510;50.558;7.258;2024-01-07T12:41:09;19.45;;;15.03;;
82000;SDS011;71510;50.558;7.258;2024-01-07T12:43:37;18.52;;;15.72;;
82000;SDS011;71510;50.558;7.258;2024-01-07T12:46:04;17.15;;;12.82;;
82000;SDS011;71510;50.558;7.258;2024-01-07T12:48:31;16.85;;;13.38;;
82000;SDS011;71510;50.558;7.258;2024-01-07T12:50:59;18.98;;;13.93;;
82000;SDS011;71510;50.558;7.258;2024-01-07T12:53:27;18.95;;;14.18;;
82000;SDS011;71510;50.558;7.258;2024-01-07T12:55:55;16.35;;;13.35;;
82000;SDS011;71510;50.558;7.258;2024-01-07T12:58:22;18.67;;;14.18;;
82000;SDS011;71510;50.558;7.258;2024-01-07T13:00:49;17.62;;;14.07;;
82000;SDS011;71510;50.558;7.258;2024-01-07T13:03:17;21.37;;;14.95;;
82000;SDS011;71510;50.558;7.258;2024-01-07T13:05:44;18.80;;;14.13;;
82000;SDS011;71510;50.558;7.258;2024-01-07T13:08:13;15.70;;;13.05;;
82000;SDS011;71510;50.558;7.258;2024-01-07T13:10:41;18.07;;;14.33;;
82000;SDS011;71510;50.558;7.258;2024-01-07T13:13:08;16.50;;;13.13;;
82000;SDS011;71510;50.558;7.258;2024-01-07T13:15:36;20.95;;;15.72;;
82000;SDS011;71510;50.558;7.258;2024-01-07T13:18:03;20.32;;;15.72;;
82000;SDS011;71510;50.558;7.258;2024-01-07T13:20:30;18.48;;;15.25;;
82000;SDS011;71510;50.558;7.258;2024-01-07T13:22:58;20.77;;;15.53;;
82000;SDS011;71510;50.558;7.258;2024-01-07T13:25:26;20.23;;;14.75;;
82000;SDS011;71510;50.558;7.258;2024-01-07T13:27:54;18.57;;;14.33;;
82000;SDS011;71510;50.558;7.258;2024-01-07T13:30:21;20.57;;;16.57;;
82000;SDS011;71510;50.558;7.258;2024-01-07T13:32:49;19.73;;;15.43;;
82000;SDS011;71510;50.558;7.258;2024-01-07T13:35:18;22.93;;;15.90;;
82000;SDS011;71510;50.558;7.258;2024-01-07T13:37:45;19.62;;;14.60;;
82000;SDS011;71510;50.558;7.258;2024-01-07T13:40:13;22.05;;;16.87;;
82000;SDS011;71510;50.558;7.258;2024-01-07T13:42:41;23.18;;;17.17;;
82000;SDS011;71510;50.558;7.258;2024-01-07T13:45:09;23.32;;;16.70;;
82000;SDS011;71510;50.558;7.258;2024-01-07T13:47:36;19.48;;;15.90;;
82000;SDS011;71510;50.558;7.258;2024-01-07T13:50:04;16.87;;;12.53;;
82000;SDS011;71510;50.558;7.258;2024-01-07T13:52:31;17.07;;;13.35;;
82000;SDS011;71510;50.558;7.258;2024-01-07T13:54:58;20.35;;;14.53;;
82000;SDS011;71510;50.558;7.258;2024-01-07T13:57:25;16.55;;;13.30;;
82000;SDS011;71510;50.558;7.258;2024-01-07T13:59:53;23.00;;;15.90;;
82000;SDS011;71510;50.558;7.258;2024-01-07T14:02:20;18.17;;;13.58;;
82000;SDS011;71510;50.558;7.258;2024-01-07T14:04:48;17.77;;;14.18;;
82000;SDS011;71510;50.558;7.258;2024-01-07T14:07:17;16.57;;;12.98;;
82000;SDS011;71510;50.558;7.258;2024-01-07T14:09:44;18.77;;;12.93;;
82000;SDS011;71510;50.558;7.258;2024-01-07T14:12:12;17.92;;;13.13;;
82000;SDS011;71510;50.558;7.258;2024-01-07T14:14:39;19.15;;;13.38;;
82000;SDS011;71510;50.558;7.258;2024-01-07T14:17:06;15.25;;;11.60;;
82000;SDS011;71510;50.558;7.258;2024-01-07T14:19:34;16.62;;;11.90;;
82000;SDS011;71510;50.558;7.258;2024-01-07T14:22:01;16.80;;;12.33;;
82000;SDS011;71510;50.558;7.258;2024-01-07T14:24:28;18.05;;;12.50;;
82000;SDS011;71510;50.558;7.258;2024-01-07T14:26:56;15.45;;;11.78;;
82000;SDS011;71510;50.558;7.258;2024-01-07T14:29:23;16.42;;;12.35;;
82000;SDS011;71510;50.558;7.258;2024-01-07T14:31:50;13.78;;;11.30;;
82000;SDS011;71510;50.558;7.258;2024-01-07T14:34:18;18.00;;;11.95;;